aviador You're here:

KPNS Decoded Metar

PENSACOLA in FL, USA
Report Time2017-07-22 01:53:00
UTC Time2017-07-22 02:31:45
Flight Rules vfr VFR
Wind230° at 03 kt
W.Decomp.*RWY 26: 2.6 kt HW 1.4 kt LCW
RWY 17: 1.4 kt HW 2.6 kt RCW
W.Rank230° ranks 26
Current wind is below 230° avg. (7.3)
Visibility9999 m
Phenomena:N/A
Clouds:Few 022 Hf
Expected CloudBase > 2,000 ft AGL from Temp-Dew spread
CeilingNone
Temp29°C (ISA +14)
Dew Point24°C (74% RH)
Heat Index33.5°C
QNH1017 hPa
Density Alt2,018 ft
Elevation125 ft
Report Wrong Elevation
Raw Report
METAR KPNS 220153Z 23003KT 10SM FEW022 29/24 A3002 RMK AO2 RAB0056E12
SLP168 P0000 T02940239=

Extra information for KPNS:More info

Metar Taf Metar & Taf Last 4 Metars F.Rules Stats Wind Profile Meteogram Temp Stats Airport Information Weather charts Add Link Nearby VenuesMetar ALERT Operation Metar Decoded Social comments

AIRNAV info for KPNS